createdAt,value
2022-12-15T00:00:03.285Z,99700.00
2022-12-15T00:02:50.713Z,99692.94
2022-12-15T00:05:37.831Z,99710.81
2022-12-15T00:08:27.417Z,99711.81
2022-12-15T00:11:13.200Z,99709.13
2022-12-15T00:13:58.921Z,99688.94
2022-12-15T00:16:44.661Z,99700.72
2022-12-15T00:19:30.045Z,99713.53
2022-12-15T00:22:16.823Z,99711.81
2022-12-15T00:25:02.149Z,99705.75
2022-12-15T00:27:47.266Z,99716.56
2022-12-15T00:30:32.417Z,99717.56
2022-12-15T00:33:17.742Z,99713.88
2022-12-15T00:36:02.987Z,99716.91
2022-12-15T00:38:44.937Z,99724.13
2022-12-15T00:41:14.623Z,99729.19
2022-12-15T00:43:42.704Z,99744.91
2022-12-15T00:46:28.867Z,99740.16
2022-12-15T00:48:57.313Z,99731.22
2022-12-15T00:51:43.680Z,99735.94
2022-12-15T00:54:31.075Z,99744.56
2022-12-15T00:57:16.253Z,99743.03
2022-12-15T01:00:01.699Z,99744.75
2022-12-15T01:02:47.203Z,99741.19
2022-12-15T01:05:32.763Z,99736.78
2022-12-15T01:08:18.769Z,99742.38
2022-12-15T01:11:05.683Z,99742.38
2022-12-15T01:13:50.957Z,99744.41
2022-12-15T01:16:36.291Z,99746.47
2022-12-15T01:19:21.932Z,99744.47
2022-12-15T01:21:49.980Z,99752.28
2022-12-15T01:24:18.047Z,99750.06
2022-12-15T01:26:47.422Z,99750.47
2022-12-15T01:29:15.400Z,99757.06
2022-12-15T01:31:44.114Z,99757.41
2022-12-15T01:34:12.284Z,99760.25
2022-12-15T01:36:40.290Z,99764.50
2022-12-15T01:39:08.372Z,99760.13
2022-12-15T01:41:35.330Z,99764.16
2022-12-15T01:44:21.315Z,99767.72
2022-12-15T01:46:53.069Z,99767.22
2022-12-15T01:49:24.484Z,99767.41
2022-12-15T01:51:56.782Z,99759.66
2022-12-15T01:54:29.055Z,99764.03
2022-12-15T01:57:01.833Z,99759.31
2022-12-15T01:59:36.364Z,99761.03
2022-12-15T02:02:05.183Z,99762.38
2022-12-15T02:04:34.768Z,99765.06
2022-12-15T02:07:02.667Z,99762.00
2022-12-15T02:09:31.560Z,99767.59
2022-12-15T02:12:06.511Z,99771.28
2022-12-15T02:14:59.909Z,99769.63
2022-12-15T02:17:38.308Z,99777.72
2022-12-15T02:20:43.740Z,99776.03
2022-12-15T02:23:54.618Z,99777.41
2022-12-15T02:26:52.834Z,99782.63
2022-12-15T02:29:39.127Z,99784.00
2022-12-15T02:32:10.951Z,99793.09
2022-12-15T02:34:44.654Z,99777.75
2022-12-15T02:37:18.182Z,99794.09
2022-12-15T02:39:46.614Z,99789.22
2022-12-15T02:42:15.151Z,99797.84
2022-12-15T02:44:47.838Z,99805.59
2022-12-15T02:47:28.641Z,99799.34
2022-12-15T02:50:19.260Z,99806.41
2022-12-15T02:52:58.947Z,99797.31
2022-12-15T02:55:38.325Z,99805.06
2022-12-15T02:58:12.193Z,99797.81
2022-12-15T03:00:46.657Z,99799.00
2022-12-15T03:03:20.382Z,99811.13
2022-12-15T03:05:49.027Z,99804.03
2022-12-15T03:08:17.135Z,99801.34
2022-12-15T03:10:45.093Z,99804.03
2022-12-15T03:13:14.229Z,99799.50
2022-12-15T03:15:42.596Z,99793.09
2022-12-15T03:18:10.927Z,99802.72
2022-12-15T03:20:40.438Z,99803.56
2022-12-15T03:23:08.683Z,99802.88
2022-12-15T03:25:36.634Z,99800.19
2022-12-15T03:28:04.691Z,99802.88
2022-12-15T03:30:32.789Z,99801.00
2022-12-15T03:33:00.784Z,99799.16
2022-12-15T03:35:28.812Z,99803.72
2022-12-15T03:37:58.216Z,99807.09
2022-12-15T03:40:26.195Z,99808.94
2022-12-15T03:42:54.193Z,99807.25
2022-12-15T03:45:24.042Z,99809.09
2022-12-15T03:47:52.945Z,99816.53
2022-12-15T03:50:24.228Z,99811.81
2022-12-15T03:52:53.258Z,99814.50
2022-12-15T03:55:23.847Z,99765.63
2022-12-15T03:57:52.574Z,99819.25
2022-12-15T04:00:22.094Z,99827.19
2022-12-15T04:02:52.003Z,99829.03
2022-12-15T04:05:21.978Z,99842.34
2022-12-15T04:07:50.018Z,99794.47
2022-12-15T04:10:18.224Z,99849.78
2022-12-15T04:12:47.618Z,99853.50
2022-12-15T04:15:16.171Z,99861.59
2022-12-15T04:17:44.175Z,99852.63
2022-12-15T04:20:12.521Z,99853.34
2022-12-15T04:22:42.148Z,99853.34
2022-12-15T04:25:29.876Z,99856.03
2022-12-15T04:28:17.699Z,99859.91
2022-12-15T04:31:06.854Z,99857.03
2022-12-15T04:33:53.239Z,99861.75
2022-12-15T04:36:38.493Z,99859.41
2022-12-15T04:39:24.273Z,99868.34
2022-12-15T04:42:10.986Z,99864.63
2022-12-15T04:44:58.150Z,99864.63
2022-12-15T04:47:43.397Z,99867.16
2022-12-15T04:50:28.669Z,99843.72
2022-12-15T04:53:14.464Z,99868.34
2022-12-15T04:55:59.799Z,99873.75
2022-12-15T04:58:45.048Z,99876.44
2022-12-15T05:01:32.100Z,99874.94
2022-12-15T05:04:17.692Z,99877.63
2022-12-15T05:07:03.080Z,99875.44
2022-12-15T05:09:48.115Z,99877.09
2022-12-15T05:12:33.624Z,99871.72
2022-12-15T05:15:18.919Z,99878.97
2022-12-15T05:18:05.781Z,99877.28
2022-12-15T05:20:51.100Z,99877.63
2022-12-15T05:23:36.740Z,99880.13
2022-12-15T05:26:22.070Z,99881.16
2022-12-15T05:29:08.037Z,99885.72
2022-12-15T05:31:51.959Z,99893.97
2022-12-15T05:34:23.571Z,99900.41
2022-12-15T05:36:52.009Z,99895.00
2022-12-15T05:39:21.368Z,99898.38
2022-12-15T05:41:49.819Z,99899.38
2022-12-15T05:44:18.444Z,99895.84
2022-12-15T05:46:47.024Z,99891.97
2022-12-15T05:49:16.638Z,99899.22
2022-12-15T05:51:47.859Z,99902.59
2022-12-15T05:54:18.967Z,99903.63
2022-12-15T05:56:50.559Z,99917.78
2022-12-15T05:59:20.090Z,99915.06
2022-12-15T06:01:48.457Z,99916.06
2022-12-15T06:04:16.598Z,99922.66
2022-12-15T06:06:46.004Z,99920.81
2022-12-15T06:09:13.949Z,99920.13
2022-12-15T06:11:42.018Z,99925.34
2022-12-15T06:14:10.212Z,99926.34
2022-12-15T06:16:44.181Z,99928.22
2022-12-15T06:19:17.773Z,99933.78
2022-12-15T06:21:47.187Z,99926.72
2022-12-15T06:24:15.210Z,99924.16
2022-12-15T06:26:43.117Z,99921.97
2022-12-15T06:29:13.272Z,99930.09
2022-12-15T06:31:42.694Z,99933.97
2022-12-15T06:34:14.875Z,99938.84
2022-12-15T06:36:43.169Z,99941.38
2022-12-15T06:39:15.165Z,99937.31
2022-12-15T06:41:43.527Z,99932.78
2022-12-15T06:44:14.902Z,99942.72
2022-12-15T06:46:43.355Z,99937.31
2022-12-15T06:49:11.612Z,99934.44
2022-12-15T06:51:41.378Z,99940.03
2022-12-15T06:54:11.212Z,99936.47
2022-12-15T06:56:40.733Z,99935.63
2022-12-15T06:59:09.302Z,99942.19
2022-12-15T07:01:37.496Z,99949.13
2022-12-15T07:04:06.203Z,99953.00
2022-12-15T07:06:37.478Z,99962.97
2022-12-15T07:09:08.589Z,99963.44
2022-12-15T07:11:36.661Z,99968.69
2022-12-15T07:14:06.127Z,99968.50
2022-12-15T07:16:34.464Z,99969.53
2022-12-15T07:19:02.500Z,99968.84
2022-12-15T07:21:30.850Z,99972.56
2022-12-15T07:23:59.799Z,99979.97
2022-12-15T07:26:28.551Z,99994.31
2022-12-15T07:28:56.765Z,99984.53
2022-12-15T07:31:26.239Z,99992.47
2022-12-15T07:33:54.816Z,99988.22
2022-12-15T07:36:22.980Z,99994.31
2022-12-15T07:38:51.598Z,99991.78
2022-12-15T07:41:21.219Z,100000.03
2022-12-15T07:43:49.467Z,99997.69
2022-12-15T07:46:18.370Z,100005.59
2022-12-15T07:48:50.368Z,100011.16
2022-12-15T07:51:21.255Z,100013.34
2022-12-15T07:53:50.991Z,100022.97
2022-12-15T07:56:19.920Z,100021.44
2022-12-15T07:58:48.646Z,100024.13
2022-12-15T08:01:17.500Z,100012.50
2022-12-15T08:03:48.342Z,100027.00
2022-12-15T08:06:17.204Z,100027.38
2022-12-15T08:08:50.537Z,100010.44
2022-12-15T08:11:20.537Z,100025.34
2022-12-15T08:14:05.676Z,100032.56
2022-12-15T08:16:36.617Z,100034.44
2022-12-15T08:19:07.441Z,100014.69
2022-12-15T08:21:35.611Z,100040.03
2022-12-15T08:24:04.140Z,100036.31
2022-12-15T08:26:32.200Z,100042.88
2022-12-15T08:29:31.875Z,100046.44
2022-12-15T08:31:52.055Z,100051.28
2022-12-15T08:34:21.554Z,100047.78
2022-12-15T08:36:49.536Z,100052.47
2022-12-15T08:39:17.749Z,100053.50
2022-12-15T08:41:46.237Z,100054.34
2022-12-15T08:44:16.785Z,100052.63
2022-12-15T08:46:44.885Z,100046.72
2022-12-15T08:49:17.892Z,100048.41
2022-12-15T08:51:51.763Z,100045.91
2022-12-15T08:54:21.288Z,100038.78
2022-12-15T08:56:49.992Z,100007.63
2022-12-15T08:59:19.081Z,100040.97
2022-12-15T09:01:47.371Z,100043.34
2022-12-15T09:04:15.641Z,100050.44
2022-12-15T09:06:43.675Z,100051.28
2022-12-15T09:09:14.659Z,100045.53
2022-12-15T09:11:42.616Z,100043.38
2022-12-15T09:14:10.594Z,100047.28
2022-12-15T09:16:38.685Z,100057.56
2022-12-15T09:19:08.306Z,100051.19
2022-12-15T09:21:36.540Z,100048.31
2022-12-15T09:24:05.332Z,100044.94
2022-12-15T09:26:36.039Z,100053.88
2022-12-15T09:29:04.520Z,100052.72
2022-12-15T09:31:34.873Z,100064.38
2022-12-15T09:34:03.878Z,100076.22
2022-12-15T09:36:33.443Z,100065.44
2022-12-15T09:39:03.015Z,100074.38
2022-12-15T09:41:33.008Z,100075.47
2022-12-15T09:44:06.534Z,100085.75
2022-12-15T09:46:50.202Z,100090.50
2022-12-15T09:49:35.571Z,100085.44
2022-12-15T09:52:11.264Z,100092.53
2022-12-15T09:54:41.764Z,100088.28
2022-12-15T09:57:17.609Z,100093.38
2022-12-15T10:00:05.278Z,100096.44
2022-12-15T10:02:56.813Z,100095.25
2022-12-15T10:06:07.061Z,100092.22
2022-12-15T10:08:31.270Z,100094.41
2022-12-15T10:11:01.679Z,100088.69
2022-12-15T10:13:39.619Z,100091.38
2022-12-15T10:16:22.068Z,100079.38
2022-12-15T10:19:01.708Z,100100.16
2022-12-15T10:21:32.576Z,100068.41
2022-12-15T10:24:11.283Z,100081.91
2022-12-15T10:26:42.626Z,100066.72
2022-12-15T10:29:24.392Z,100094.09
2022-12-15T10:31:55.575Z,100071.81
2022-12-15T10:34:27.850Z,100074.88
2022-12-15T10:36:57.255Z,100072.16
2022-12-15T10:39:37.293Z,100074.34
2022-12-15T10:42:15.011Z,100082.91
2022-12-15T10:44:44.965Z,100080.84
2022-12-15T10:47:23.134Z,100086.94
2022-12-15T10:49:51.612Z,100074.44
2022-12-15T10:52:27.524Z,100086.91
2022-12-15T10:54:56.553Z,100080.31
2022-12-15T10:57:28.840Z,100086.78
2022-12-15T10:59:58.646Z,100083.22
2022-12-15T11:02:37.483Z,100082.03
2022-12-15T11:05:16.633Z,100089.16
2022-12-15T11:07:47.753Z,100086.59
2022-12-15T11:10:21.603Z,100083.41
2022-12-15T11:12:59.321Z,100090.16
2022-12-15T11:15:50.670Z,100092.16
2022-12-15T11:18:33.610Z,100104.53
2022-12-15T11:21:06.613Z,100102.50
2022-12-15T11:23:48.924Z,100103.53
2022-12-15T11:26:30.327Z,100113.31
2022-12-15T11:29:02.992Z,100084.25
2022-12-15T11:31:36.132Z,100113.97
2022-12-15T11:34:12.936Z,100098.09
2022-12-15T11:37:04.541Z,100099.09
2022-12-15T11:39:46.956Z,100105.16
2022-12-15T11:42:23.848Z,100116.84
2022-12-15T11:45:03.216Z,100145.75
2022-12-15T11:47:40.786Z,100142.56
2022-12-15T11:50:24.661Z,100145.97
2022-12-15T11:53:15.920Z,100153.91
2022-12-15T11:55:53.101Z,100147.81
2022-12-15T11:58:52.102Z,100139.03
2022-12-15T12:01:38.473Z,100139.72
2022-12-15T12:04:17.629Z,100145.47
2022-12-15T12:06:56.371Z,100134.13
2022-12-15T12:09:31.743Z,100137.88
2022-12-15T12:12:16.863Z,100146.28
2022-12-15T12:14:53.059Z,100143.06
2022-12-15T12:17:31.677Z,100147.47
2022-12-15T12:20:11.022Z,100141.41
2022-12-15T12:22:45.611Z,100159.31
2022-12-15T12:25:18.626Z,100161.84
2022-12-15T12:27:53.081Z,100158.97
2022-12-15T12:30:23.002Z,100160.69
2022-12-15T12:32:59.573Z,100146.13
2022-12-15T12:35:33.369Z,100144.78
2022-12-15T12:38:05.128Z,100150.34
2022-12-15T12:40:46.411Z,100152.38
2022-12-15T12:43:31.917Z,100155.94
2022-12-15T12:46:05.445Z,100157.28
2022-12-15T12:48:37.689Z,100166.44
2022-12-15T12:51:18.894Z,100146.63
2022-12-15T12:53:48.750Z,100160.00
2022-12-15T12:56:38.842Z,100168.81
2022-12-15T12:59:38.684Z,100167.28
2022-12-15T13:02:56.341Z,100172.16
2022-12-15T13:05:31.138Z,100174.88
2022-12-15T13:08:34.683Z,100174.34
2022-12-15T13:12:14.914Z,100178.25
2022-12-15T13:14:51.642Z,100180.97
2022-12-15T13:17:30.341Z,100179.09
2022-12-15T13:20:28.935Z,100178.25
2022-12-15T13:23:13.058Z,100176.41
2022-12-15T13:25:48.546Z,100183.66
2022-12-15T13:28:31.323Z,100187.06
2022-12-15T13:31:35.946Z,100183.66
2022-12-15T13:34:17.748Z,100190.44
2022-12-15T13:36:55.308Z,100196.03
2022-12-15T13:39:58.738Z,100185.03
2022-12-15T13:42:35.961Z,100184.19
2022-12-15T13:45:26.830Z,100180.81
2022-12-15T13:47:57.359Z,100192.16
2022-12-15T13:50:33.587Z,100189.44
2022-12-15T13:53:20.492Z,100197.88
2022-12-15T13:56:01.644Z,100198.88
2022-12-15T13:58:34.824Z,100194.50
2022-12-15T14:01:05.178Z,100198.88
2022-12-15T14:03:33.614Z,100205.34
2022-12-15T14:06:02.613Z,100200.94
2022-12-15T14:08:32.113Z,100193.66
2022-12-15T14:11:07.034Z,100188.41
2022-12-15T14:13:40.342Z,100191.09
2022-12-15T14:16:19.677Z,100196.88
2022-12-15T14:19:05.091Z,100200.59
2022-12-15T14:21:32.984Z,100200.59
2022-12-15T14:24:37.161Z,100196.19
2022-12-15T14:26:50.567Z,100201.44
2022-12-15T14:29:18.950Z,100197.72
2022-12-15T14:31:52.201Z,100198.56
2022-12-15T14:34:27.181Z,100190.44
2022-12-15T14:36:57.274Z,100178.28
2022-12-15T14:39:29.539Z,100202.78
2022-12-15T14:41:59.059Z,100209.03
2022-12-15T14:44:38.052Z,100204.16
2022-12-15T14:47:17.178Z,100196.72
2022-12-15T14:49:46.504Z,100207.34
2022-12-15T14:52:26.758Z,100215.13
2022-12-15T14:54:57.624Z,100215.47
2022-12-15T14:57:28.091Z,100212.09
2022-12-15T14:59:56.118Z,100219.53
2022-12-15T15:02:28.841Z,100220.72
2022-12-15T15:04:59.820Z,100223.75
2022-12-15T15:07:29.668Z,100226.63
2022-12-15T15:09:57.992Z,100226.78
2022-12-15T15:12:35.995Z,100181.63
2022-12-15T15:15:07.908Z,100231.19
2022-12-15T15:17:44.887Z,100234.75
2022-12-15T15:20:19.992Z,100233.03
2022-12-15T15:23:02.763Z,100239.47
2022-12-15T15:25:40.003Z,100234.03
2022-12-15T15:28:24.235Z,100232.69
2022-12-15T15:30:56.240Z,100234.56
2022-12-15T15:33:26.738Z,100233.72
2022-12-15T15:35:57.159Z,100243.34
2022-12-15T15:38:28.059Z,100248.41
2022-12-15T15:40:58.092Z,100249.44
2022-12-15T15:43:27.306Z,100241.31
2022-12-15T15:46:00.156Z,100246.03
2022-12-15T15:48:33.423Z,100245.34
2022-12-15T15:51:02.106Z,100251.28
2022-12-15T15:53:33.438Z,100251.28
2022-12-15T15:56:03.376Z,100254.97
2022-12-15T15:58:31.614Z,100259.72
2022-12-15T16:00:59.912Z,100249.91
2022-12-15T16:03:29.753Z,100258.00
2022-12-15T16:05:57.891Z,100257.19
2022-12-15T16:08:29.276Z,100271.38
2022-12-15T16:10:57.480Z,100267.16
2022-12-15T16:13:26.479Z,100269.19
2022-12-15T16:15:55.362Z,100250.88
2022-12-15T16:18:23.307Z,100265.78
2022-12-15T16:20:54.372Z,100266.09
2022-12-15T16:23:25.121Z,100267.41
2022-12-15T16:25:55.301Z,100266.06
2022-12-15T16:28:24.863Z,100268.41
2022-12-15T16:30:53.526Z,100268.41
2022-12-15T16:33:22.270Z,100266.91
2022-12-15T16:35:52.692Z,100269.06
2022-12-15T16:38:25.611Z,100266.88
2022-12-15T16:40:55.474Z,100266.66
2022-12-15T16:43:32.930Z,100271.22
2022-12-15T16:46:04.844Z,100281.50
2022-12-15T16:48:33.279Z,100285.38
2022-12-15T16:51:02.840Z,100283.16
2022-12-15T16:53:32.984Z,100273.31
2022-12-15T16:56:03.989Z,100284.66
2022-12-15T16:58:33.336Z,100263.09
2022-12-15T17:01:01.464Z,100287.16
2022-12-15T17:03:29.459Z,100279.53
2022-12-15T17:06:00.908Z,100281.56
2022-12-15T17:08:36.401Z,100281.00
2022-12-15T17:11:05.102Z,100286.03
2022-12-15T17:13:40.564Z,100281.63
2022-12-15T17:16:15.014Z,100276.72
2022-12-15T17:18:44.605Z,100282.28
2022-12-15T17:21:16.884Z,100286.84
2022-12-15T17:23:48.919Z,100283.75
2022-12-15T17:26:29.117Z,100282.06
2022-12-15T17:29:00.933Z,100293.03
2022-12-15T17:31:35.122Z,100293.34
2022-12-15T17:34:14.670Z,100298.19
2022-12-15T17:36:42.796Z,100299.38
2022-12-15T17:39:14.333Z,100304.75
2022-12-15T17:41:59.322Z,100301.22
2022-12-15T17:44:38.635Z,100299.69
2022-12-15T17:47:10.893Z,100307.94
2022-12-15T17:49:39.359Z,100281.69
2022-12-15T17:52:16.354Z,100309.25
2022-12-15T17:54:45.752Z,100306.03
2022-12-15T17:57:13.799Z,100313.59
2022-12-15T17:59:41.685Z,100310.03
2022-12-15T18:02:12.883Z,100309.34
2022-12-15T18:04:41.410Z,100323.16
2022-12-15T18:07:16.492Z,100324.88
2022-12-15T18:09:46.162Z,100320.75
2022-12-15T18:12:19.472Z,100322.47
2022-12-15T18:14:47.871Z,100323.81
2022-12-15T18:17:16.074Z,100330.19
2022-12-15T18:19:43.976Z,100322.41
2022-12-15T18:22:14.473Z,100329.81
2022-12-15T18:24:42.483Z,100329.22
2022-12-15T18:27:24.027Z,100329.41
2022-12-15T18:29:52.379Z,100268.69
2022-12-15T18:32:22.637Z,100326.06
2022-12-15T18:34:50.610Z,100328.75
2022-12-15T18:37:20.362Z,100339.84
2022-12-15T18:39:48.648Z,100326.06
2022-12-15T18:42:17.927Z,100332.69
2022-12-15T18:44:49.555Z,100340.09
2022-12-15T18:47:18.923Z,100333.16
2022-12-15T18:49:47.102Z,100340.41
2022-12-15T18:52:18.511Z,100344.94
2022-12-15T18:54:47.896Z,100347.09
2022-12-15T18:57:28.868Z,100351.78
2022-12-15T19:00:00.638Z,100348.56
2022-12-15T19:02:28.727Z,100348.41
2022-12-15T19:04:56.818Z,100348.41
2022-12-15T19:07:24.908Z,100355.50
2022-12-15T19:09:53.352Z,100365.44
2022-12-15T19:12:21.385Z,100363.59
2022-12-15T19:14:51.435Z,100363.44
2022-12-15T19:17:40.682Z,100367.84
2022-12-15T19:20:33.993Z,100390.56
2022-12-15T19:23:02.074Z,100382.47
2022-12-15T19:25:30.859Z,100380.06
2022-12-15T19:28:00.831Z,100388.84
2022-12-15T19:30:30.955Z,100388.00
2022-12-15T19:33:00.235Z,100388.16
2022-12-15T19:35:30.343Z,100391.00
2022-12-15T19:37:59.996Z,100390.31
2022-12-15T19:40:31.384Z,100387.78
2022-12-15T19:43:00.209Z,100392.44
2022-12-15T19:45:30.328Z,100404.38
2022-12-15T19:47:58.403Z,100404.69
2022-12-15T19:50:30.696Z,100391.91
2022-12-15T19:53:01.514Z,100395.03
2022-12-15T19:55:33.642Z,100399.03
2022-12-15T19:58:02.013Z,100396.81
2022-12-15T20:00:29.925Z,100405.19
2022-12-15T20:02:58.063Z,100400.91
2022-12-15T20:05:27.575Z,100401.88
2022-12-15T20:07:55.874Z,100408.44
2022-12-15T20:10:32.255Z,100413.13
2022-12-15T20:13:01.342Z,100419.09
2022-12-15T20:15:29.539Z,100423.78
2022-12-15T20:17:58.013Z,100432.03
2022-12-15T20:20:29.879Z,100430.47
2022-12-15T20:23:00.810Z,100431.47
2022-12-15T20:25:31.598Z,100433.47
2022-12-15T20:28:01.336Z,100426.53
2022-12-15T20:30:32.459Z,100433.34
2022-12-15T20:33:00.996Z,100438.88
2022-12-15T20:35:33.290Z,100441.72
2022-12-15T20:38:04.355Z,100432.13
2022-12-15T20:40:33.063Z,100436.66
2022-12-15T20:43:00.943Z,100448.97
2022-12-15T20:45:29.370Z,100460.44
2022-12-15T20:47:57.646Z,100457.03
2022-12-15T20:50:41.191Z,100388.75
2022-12-15T20:53:14.940Z,100450.97
2022-12-15T20:55:43.276Z,100457.50
2022-12-15T20:58:11.641Z,100455.94
2022-12-15T21:00:40.270Z,100441.06
2022-12-15T21:03:24.526Z,100457.78
2022-12-15T21:05:56.414Z,100459.91
2022-12-15T21:08:26.335Z,100463.28
2022-12-15T21:10:57.280Z,100461.44
2022-12-15T21:13:27.866Z,100465.00
2022-12-15T21:15:56.053Z,100461.31
2022-12-15T21:21:20.804Z,100464.00
2022-12-15T21:23:49.214Z,100467.53
2022-12-15T21:26:20.681Z,100474.31
2022-12-15T21:28:49.459Z,100472.47
2022-12-15T21:31:19.476Z,100475.00
2022-12-15T21:33:47.588Z,100475.88
2022-12-15T21:36:19.443Z,100486.53
2022-12-15T21:38:50.290Z,100498.00
2022-12-15T21:41:23.029Z,100494.16
2022-12-15T21:43:51.595Z,100483.22
2022-12-15T21:46:24.744Z,100489.34
2022-12-15T21:49:13.435Z,100474.72
2022-12-15T21:51:45.331Z,100494.28
2022-12-15T21:54:18.186Z,100485.34
2022-12-15T21:56:46.447Z,100491.03
2022-12-15T21:59:15.837Z,100499.25
2022-12-15T22:01:44.307Z,100501.38
2022-12-15T22:04:18.308Z,100503.66
2022-12-15T22:06:50.813Z,100504.09
2022-12-15T22:09:21.236Z,100505.38
2022-12-15T22:11:52.934Z,100504.53
2022-12-15T22:14:26.005Z,100518.00
2022-12-15T22:16:54.047Z,100467.25
2022-12-15T22:19:23.045Z,100504.13
2022-12-15T22:21:52.702Z,100521.56
2022-12-15T22:24:20.942Z,100515.59
2022-12-15T22:26:49.226Z,100463.56
2022-12-15T22:29:20.438Z,100516.03
2022-12-15T22:31:49.541Z,100506.66
2022-12-15T22:34:19.656Z,100510.78
2022-12-15T22:36:47.919Z,100475.66
2022-12-15T22:39:18.869Z,100529.63
2022-12-15T22:41:49.972Z,100531.88
2022-12-15T22:44:21.440Z,100482.44
2022-12-15T22:46:50.017Z,100530.72
2022-12-15T22:49:22.252Z,100525.34
2022-12-15T22:51:50.380Z,100536.56
2022-12-15T22:54:20.881Z,100517.00
2022-12-15T22:56:52.089Z,100546.06
2022-12-15T22:59:26.229Z,100540.50
2022-12-15T23:01:54.611Z,100545.78
2022-12-15T23:04:22.868Z,100543.78
2022-12-15T23:06:50.856Z,100545.50
2022-12-15T23:09:21.062Z,100546.75
2022-12-15T23:11:48.249Z,100493.91
2022-12-15T23:14:18.847Z,100545.06
2022-12-15T23:16:46.617Z,100495.19
2022-12-15T23:19:24.009Z,100545.50
2022-12-15T23:21:52.209Z,100554.56
2022-12-15T23:24:21.947Z,100549.75
2022-12-15T23:26:49.947Z,100557.41
2022-12-15T23:29:18.059Z,100554.72
2022-12-15T23:31:46.139Z,100559.66
2022-12-15T23:34:14.309Z,100568.03
2022-12-15T23:36:42.243Z,100566.47
2022-12-15T23:39:10.267Z,100577.09
2022-12-15T23:41:39.623Z,100576.81
2022-12-15T23:44:07.548Z,100581.22
2022-12-15T23:46:35.663Z,100566.31
2022-12-15T23:49:03.634Z,100588.72
2022-12-15T23:51:31.619Z,100588.59
2022-12-15T23:53:59.721Z,100582.06
2022-12-15T23:56:27.815Z,100543.38
2022-12-15T23:58:58.702Z,100563.78
